createdAt,value
2023-03-15T00:00:45.658Z,100390.38
2023-03-15T00:01:47.327Z,100386.94
2023-03-15T00:02:49.185Z,100398.09
2023-03-15T00:03:50.793Z,100398.97
2023-03-15T00:04:54.880Z,100398.94
2023-03-15T00:05:56.391Z,100398.09
2023-03-15T00:06:58.383Z,100406.69
2023-03-15T00:07:59.890Z,100411.00
2023-03-15T00:09:02.174Z,100417.00
2023-03-15T00:10:04.388Z,100412.69
2023-03-15T00:11:06.252Z,100411.00
2023-03-15T00:12:11.317Z,100409.25
2023-03-15T00:13:16.361Z,100417.00
2023-03-15T00:14:18.618Z,100421.28
2023-03-15T00:15:20.300Z,100418.69
2023-03-15T00:16:21.695Z,100417.81
2023-03-15T00:17:23.210Z,100423.81
2023-03-15T00:18:24.940Z,100426.41
2023-03-15T00:19:26.449Z,100428.97
2023-03-15T00:20:27.948Z,100430.72
2023-03-15T00:21:29.960Z,100429.84
2023-03-15T00:22:31.339Z,100430.72
2023-03-15T00:23:32.728Z,100441.88
2023-03-15T00:24:34.247Z,100441.88
2023-03-15T00:25:35.714Z,100447.88
2023-03-15T00:26:37.614Z,100444.44
2023-03-15T00:27:41.738Z,100451.31
2023-03-15T00:28:43.660Z,100454.75
2023-03-15T00:29:45.229Z,100444.44
2023-03-15T00:30:46.703Z,100455.59
2023-03-15T00:31:51.606Z,100444.41
2023-03-15T00:32:56.750Z,100454.72
2023-03-15T00:33:58.374Z,100458.16
2023-03-15T00:34:59.895Z,100464.16
2023-03-15T00:36:05.780Z,100459.00
2023-03-15T00:37:07.456Z,100455.56
2023-03-15T00:38:09.555Z,100452.91
2023-03-15T00:39:11.181Z,100457.22
2023-03-15T00:40:16.112Z,100456.38
2023-03-15T00:41:18.696Z,100457.22
2023-03-15T00:42:20.266Z,100464.13
2023-03-15T00:43:23.428Z,100464.97
2023-03-15T00:44:25.123Z,100460.66
2023-03-15T00:45:26.621Z,100464.13
2023-03-15T00:46:28.472Z,100464.94
2023-03-15T00:47:30.194Z,100468.38
2023-03-15T00:48:31.667Z,100466.66
2023-03-15T00:49:34.151Z,100468.38
2023-03-15T00:50:39.102Z,100464.94
2023-03-15T00:51:40.562Z,100470.94
2023-03-15T00:52:44.315Z,100470.03
2023-03-15T00:53:48.506Z,100468.34
2023-03-15T00:54:53.155Z,100479.50
2023-03-15T00:55:54.748Z,100481.25
2023-03-15T00:56:56.189Z,100482.94
2023-03-15T00:57:58.377Z,100481.22
2023-03-15T00:59:00.223Z,100476.91
2023-03-15T01:00:10.171Z,100479.50
2023-03-15T01:01:19.557Z,100492.38
2023-03-15T01:02:22.282Z,100482.06
2023-03-15T01:03:23.739Z,100483.75
2023-03-15T01:04:25.187Z,100495.81
2023-03-15T01:05:26.780Z,100486.31
2023-03-15T01:06:29.205Z,100485.47
2023-03-15T01:07:33.531Z,100488.91
2023-03-15T01:08:35.032Z,100482.91
2023-03-15T01:09:36.522Z,100493.22
2023-03-15T01:10:39.160Z,100488.91
2023-03-15T01:11:41.821Z,100485.47
2023-03-15T01:12:45.078Z,100493.19
2023-03-15T01:13:46.716Z,100496.63
2023-03-15T01:14:48.394Z,100498.38
2023-03-15T01:15:50.236Z,100494.03
2023-03-15T01:16:55.318Z,100489.72
2023-03-15T01:17:56.856Z,100494.88
2023-03-15T01:18:59.370Z,100491.44
2023-03-15T01:20:00.855Z,100495.72
2023-03-15T01:21:02.293Z,100501.75
2023-03-15T01:22:03.803Z,100497.41
2023-03-15T01:23:05.178Z,100502.56
2023-03-15T01:24:06.982Z,100504.31
2023-03-15T01:25:09.428Z,100505.16
2023-03-15T01:26:12.834Z,100504.28
2023-03-15T01:27:14.510Z,100506.00
2023-03-15T01:28:18.700Z,100503.41
2023-03-15T01:29:22.642Z,100504.31
2023-03-15T01:30:24.271Z,100505.16
2023-03-15T01:31:26.945Z,100511.16
2023-03-15T01:32:28.891Z,100516.31
2023-03-15T01:33:32.880Z,100512.03
2023-03-15T01:34:36.958Z,100511.16
2023-03-15T01:35:38.457Z,100509.44
2023-03-15T01:36:45.244Z,100512.88
2023-03-15T01:37:49.467Z,100512.03
2023-03-15T01:38:51.283Z,100512.06
2023-03-15T01:39:58.043Z,100511.22
2023-03-15T01:40:59.929Z,100517.25
2023-03-15T01:42:04.507Z,100518.09
2023-03-15T01:43:06.456Z,100519.81
2023-03-15T01:44:18.599Z,100514.69
2023-03-15T01:45:59.907Z,100524.16
2023-03-15T01:47:02.702Z,100521.59
2023-03-15T01:48:05.402Z,100525.03
2023-03-15T01:49:16.201Z,100527.63
2023-03-15T01:50:25.435Z,100525.94
2023-03-15T01:51:31.257Z,100530.25
2023-03-15T01:52:35.495Z,100539.72
2023-03-15T01:53:38.082Z,100528.53
2023-03-15T01:54:49.672Z,100529.38
2023-03-15T01:55:53.143Z,100535.44
2023-03-15T01:57:04.428Z,100534.59
2023-03-15T01:58:06.958Z,100539.75
2023-03-15T01:59:17.076Z,100544.06
2023-03-15T02:00:20.323Z,100548.41
2023-03-15T02:01:29.988Z,100548.41
2023-03-15T02:02:36.318Z,100546.69
2023-03-15T02:03:46.526Z,100551.00
2023-03-15T02:04:52.396Z,100553.59
2023-03-15T02:05:59.785Z,100559.63
2023-03-15T02:07:11.499Z,100554.47
2023-03-15T02:08:17.374Z,100550.16
2023-03-15T02:09:22.542Z,100557.06
2023-03-15T02:10:40.675Z,100553.59
2023-03-15T02:11:43.087Z,100551.03
2023-03-15T02:12:47.674Z,100549.31
2023-03-15T02:13:49.590Z,100554.47
2023-03-15T02:14:51.990Z,100556.19
2023-03-15T02:15:56.317Z,100554.47
2023-03-15T02:17:10.554Z,100554.47
2023-03-15T02:18:12.911Z,100555.34
2023-03-15T02:19:45.497Z,100561.34
2023-03-15T02:20:53.735Z,100566.47
2023-03-15T02:22:01.324Z,100570.78
2023-03-15T02:23:07.867Z,100571.66
2023-03-15T02:24:11.589Z,100573.38
2023-03-15T02:25:14.913Z,100580.25
2023-03-15T02:26:16.362Z,100582.81
2023-03-15T02:27:25.719Z,100584.56
2023-03-15T02:28:27.804Z,100587.16
2023-03-15T02:29:29.771Z,100584.56
2023-03-15T02:30:31.241Z,100588.00
2023-03-15T02:31:38.094Z,100588.00
2023-03-15T02:32:41.743Z,100589.75
2023-03-15T02:33:47.476Z,100592.31
2023-03-15T02:34:49.332Z,100589.75
2023-03-15T02:35:51.400Z,100594.91
2023-03-15T02:36:54.108Z,100603.53
2023-03-15T02:37:55.763Z,100600.97
2023-03-15T02:38:57.550Z,100593.22
2023-03-15T02:39:58.984Z,100595.81
2023-03-15T02:41:00.543Z,100597.50
2023-03-15T02:42:02.000Z,100596.66
2023-03-15T02:43:13.956Z,100597.50
2023-03-15T02:44:21.507Z,100598.41
2023-03-15T02:45:27.662Z,100594.06
2023-03-15T02:46:29.341Z,100600.97
2023-03-15T02:47:33.621Z,100603.56
2023-03-15T02:48:35.874Z,100607.00
2023-03-15T02:49:40.011Z,100601.81
2023-03-15T02:50:42.868Z,100604.41
2023-03-15T02:51:44.360Z,100607.00
2023-03-15T02:52:46.063Z,100611.31
2023-03-15T02:53:49.906Z,100611.28
2023-03-15T02:54:51.303Z,100613.88
2023-03-15T02:55:55.240Z,100617.31
2023-03-15T02:56:58.998Z,100628.47
2023-03-15T02:58:01.514Z,100631.97
2023-03-15T02:59:05.134Z,100634.56
2023-03-15T03:00:13.278Z,100644.03
2023-03-15T03:01:15.995Z,100647.47
2023-03-15T03:02:18.728Z,100643.16
2023-03-15T03:03:21.440Z,100650.03
2023-03-15T03:04:23.292Z,100651.78
2023-03-15T03:05:24.930Z,100652.59
2023-03-15T03:06:26.399Z,100654.31
2023-03-15T03:07:28.386Z,100650.88
2023-03-15T03:08:35.451Z,100656.88
2023-03-15T03:09:37.264Z,100653.44
2023-03-15T03:10:39.022Z,100662.88
2023-03-15T03:11:40.612Z,100653.41
2023-03-15T03:12:42.631Z,100660.25
2023-03-15T03:13:44.233Z,100662.81
2023-03-15T03:14:45.650Z,100662.81
2023-03-15T03:15:58.482Z,100666.25
2023-03-15T03:17:04.361Z,100673.13
2023-03-15T03:18:05.838Z,100667.13
2023-03-15T03:19:07.440Z,100666.22
2023-03-15T03:20:13.705Z,100665.38
2023-03-15T03:21:19.810Z,100672.25
2023-03-15T03:22:24.499Z,100670.50
2023-03-15T03:23:29.056Z,100675.69
2023-03-15T03:24:32.405Z,100684.28
2023-03-15T03:25:33.987Z,100677.44
2023-03-15T03:26:37.715Z,100681.69
2023-03-15T03:27:40.189Z,100679.13
2023-03-15T03:28:44.811Z,100682.59
2023-03-15T03:29:46.279Z,100680.88
2023-03-15T03:30:50.788Z,100685.16
2023-03-15T03:31:52.403Z,100682.59
2023-03-15T03:32:55.897Z,100683.44
2023-03-15T03:33:57.418Z,100686.88
2023-03-15T03:34:59.822Z,100682.56
2023-03-15T03:36:02.320Z,100693.75
2023-03-15T03:37:04.694Z,100692.00
2023-03-15T03:38:46.054Z,100698.88
2023-03-15T03:39:48.513Z,100697.13
2023-03-15T03:40:50.870Z,100704.84
2023-03-15T03:41:52.403Z,100705.69
2023-03-15T03:42:56.503Z,100708.28
2023-03-15T03:44:00.809Z,100711.69
2023-03-15T03:45:02.353Z,100712.56
2023-03-15T03:46:14.649Z,100714.25
2023-03-15T03:47:21.355Z,100711.66
2023-03-15T03:48:22.781Z,100721.97
2023-03-15T03:49:24.756Z,100719.38
2023-03-15T03:50:26.401Z,100725.38
2023-03-15T03:51:30.732Z,100725.38
2023-03-15T03:52:32.236Z,100727.97
2023-03-15T03:53:41.348Z,100729.69
2023-03-15T03:54:43.225Z,100734.03
2023-03-15T03:55:46.404Z,100734.03
2023-03-15T03:56:52.315Z,100737.44
2023-03-15T03:57:54.932Z,100738.28
2023-03-15T03:59:16.094Z,100736.56
2023-03-15T04:00:26.452Z,100745.19
2023-03-15T04:01:27.922Z,100745.19
2023-03-15T04:02:30.135Z,100751.28
2023-03-15T04:03:38.432Z,100741.78
2023-03-15T04:04:51.892Z,100746.94
2023-03-15T04:05:56.532Z,100752.13
2023-03-15T04:06:59.147Z,100746.13
2023-03-15T04:08:05.924Z,100742.66
2023-03-15T04:09:13.541Z,100748.69
2023-03-15T04:10:17.604Z,100740.94
2023-03-15T04:11:26.726Z,100754.72
2023-03-15T04:12:33.429Z,100752.97
2023-03-15T04:13:34.950Z,100756.41
2023-03-15T04:14:36.988Z,100752.94
2023-03-15T04:15:44.163Z,100750.38
2023-03-15T04:16:45.615Z,100742.63
2023-03-15T04:17:55.940Z,100740.94
2023-03-15T04:18:59.068Z,100734.88
2023-03-15T04:20:07.018Z,100731.44
2023-03-15T04:21:11.631Z,100727.97
2023-03-15T04:22:16.254Z,100726.28
2023-03-15T04:23:40.815Z,100727.13
2023-03-15T04:25:11.561Z,100729.69
2023-03-15T04:26:36.159Z,100736.56
2023-03-15T04:28:05.181Z,100737.34
2023-03-15T04:29:29.563Z,100746.75
2023-03-15T04:31:01.710Z,100749.28
2023-03-15T04:32:21.599Z,100750.13
2023-03-15T04:33:40.885Z,100755.28
2023-03-15T04:34:55.984Z,100762.97
2023-03-15T04:36:04.584Z,100757.81
2023-03-15T04:37:17.908Z,100761.22
2023-03-15T04:38:37.338Z,100762.03
2023-03-15T04:39:58.164Z,100761.16
2023-03-15T04:41:32.218Z,100772.28
2023-03-15T04:42:45.850Z,100767.91
2023-03-15T04:44:08.637Z,100778.22
2023-03-15T04:45:28.734Z,100773.88
2023-03-15T04:46:45.615Z,100768.69
2023-03-15T04:47:55.820Z,100771.25
2023-03-15T04:49:15.436Z,100777.22
2023-03-15T04:50:31.439Z,100779.75
2023-03-15T04:51:53.225Z,100780.56
2023-03-15T04:53:23.657Z,100776.22
2023-03-15T04:54:39.296Z,100771.91
2023-03-15T04:56:04.826Z,100772.72
2023-03-15T04:57:24.913Z,100775.25
2023-03-15T04:58:46.717Z,100776.91
2023-03-15T05:00:09.844Z,100781.09
2023-03-15T05:01:19.623Z,100783.66
2023-03-15T05:02:41.472Z,100781.06
2023-03-15T05:03:53.728Z,100787.00
2023-03-15T05:05:24.748Z,100779.25
2023-03-15T05:06:46.431Z,100785.22
2023-03-15T05:08:17.391Z,100786.91
2023-03-15T05:09:39.940Z,100789.47
2023-03-15T05:11:02.393Z,100785.97
2023-03-15T05:12:24.542Z,100787.66
2023-03-15T05:13:31.047Z,100792.78
2023-03-15T05:14:56.166Z,100792.75
2023-03-15T05:16:09.800Z,100798.75
2023-03-15T05:17:21.208Z,100797.00
2023-03-15T05:18:41.520Z,100800.41
2023-03-15T05:19:42.938Z,100805.53
2023-03-15T05:21:03.982Z,100820.09
2023-03-15T05:22:25.572Z,100814.03
2023-03-15T05:23:53.243Z,100823.47
2023-03-15T05:25:15.406Z,100823.41
2023-03-15T05:26:46.445Z,100825.06
2023-03-15T05:28:05.449Z,100829.31
2023-03-15T05:29:14.527Z,100839.59
2023-03-15T05:30:39.346Z,100841.25
2023-03-15T05:31:49.190Z,100836.06
2023-03-15T05:33:11.753Z,100846.34
2023-03-15T05:34:24.174Z,100848.91
2023-03-15T05:35:34.438Z,100853.13
2023-03-15T05:36:46.590Z,100853.91
2023-03-15T05:38:06.864Z,100855.59
2023-03-15T05:39:09.087Z,100859.03
2023-03-15T05:40:32.911Z,100867.63
2023-03-15T05:41:44.389Z,100872.72
2023-03-15T05:43:17.238Z,100883.09
2023-03-15T05:44:43.487Z,100877.94
2023-03-15T05:46:03.888Z,100873.69
2023-03-15T05:47:32.056Z,100874.53
2023-03-15T05:48:50.209Z,100880.63
2023-03-15T05:50:14.677Z,100889.22
2023-03-15T05:51:43.097Z,100897.00
2023-03-15T05:53:10.876Z,100888.44
2023-03-15T05:54:35.458Z,100885.91
2023-03-15T05:56:09.187Z,100886.88
2023-03-15T05:57:16.459Z,100892.91
2023-03-15T05:58:40.467Z,100894.72
2023-03-15T05:59:47.972Z,100894.81
2023-03-15T06:01:17.892Z,100900.84
2023-03-15T06:02:34.231Z,100907.81
2023-03-15T06:03:51.234Z,100902.69
2023-03-15T06:04:56.627Z,100909.63
2023-03-15T06:06:01.082Z,100909.66
2023-03-15T06:07:09.996Z,100908.00
2023-03-15T06:08:11.456Z,100912.28
2023-03-15T06:09:18.333Z,100917.56
2023-03-15T06:10:28.450Z,100915.84
2023-03-15T06:11:31.926Z,100916.75
2023-03-15T06:12:38.091Z,100915.09
2023-03-15T06:13:39.636Z,100920.28
2023-03-15T06:14:49.821Z,100918.59
2023-03-15T06:15:51.701Z,100922.13
2023-03-15T06:16:54.810Z,100925.53
2023-03-15T06:17:57.899Z,100924.72
2023-03-15T06:18:59.783Z,100920.47
2023-03-15T06:20:01.648Z,100925.63
2023-03-15T06:21:03.219Z,100929.09
2023-03-15T06:22:04.996Z,100931.69
2023-03-15T06:23:15.937Z,100930.88
2023-03-15T06:24:22.360Z,100936.06
2023-03-15T06:25:25.986Z,100925.78
2023-03-15T06:26:27.738Z,100931.84
2023-03-15T06:27:34.298Z,100931.91
2023-03-15T06:28:36.199Z,100929.34
2023-03-15T06:29:38.943Z,100932.78
2023-03-15T06:30:40.995Z,100942.28
2023-03-15T06:31:44.186Z,100939.72
2023-03-15T06:32:46.739Z,100937.16
2023-03-15T06:33:52.245Z,100943.25
2023-03-15T06:34:54.955Z,100941.53
2023-03-15T06:35:56.538Z,100945.91
2023-03-15T06:36:57.961Z,100945.13
2023-03-15T06:37:59.451Z,100944.31
2023-03-15T06:39:02.947Z,100943.44
2023-03-15T06:40:09.176Z,100952.13
2023-03-15T06:41:15.132Z,100952.13
2023-03-15T06:42:17.576Z,100953.94
2023-03-15T06:43:19.802Z,100953.16
2023-03-15T06:44:21.871Z,100958.34
2023-03-15T06:45:30.382Z,100956.72
2023-03-15T06:46:34.594Z,100966.22
2023-03-15T06:47:36.180Z,100960.25
2023-03-15T06:48:39.084Z,100967.22
2023-03-15T06:49:42.188Z,100966.44
2023-03-15T06:50:47.609Z,100972.56
2023-03-15T06:51:52.472Z,100972.66
2023-03-15T06:52:54.359Z,100979.63
2023-03-15T06:53:56.099Z,100970.25
2023-03-15T06:54:58.997Z,100970.34
2023-03-15T06:56:00.662Z,100973.88
2023-03-15T06:57:02.198Z,100977.44
2023-03-15T06:58:03.764Z,100980.97
2023-03-15T06:59:08.667Z,100977.63
2023-03-15T07:00:11.468Z,100981.19
2023-03-15T07:01:13.932Z,100984.78
2023-03-15T07:02:16.945Z,100986.56
2023-03-15T07:03:22.298Z,100984.97
2023-03-15T07:04:25.946Z,100989.38
2023-03-15T07:05:27.944Z,100987.75
2023-03-15T07:06:29.593Z,100997.25
2023-03-15T07:07:31.008Z,101002.53
2023-03-15T07:08:34.732Z,101010.34
2023-03-15T07:09:36.324Z,101022.44
2023-03-15T07:10:37.931Z,101022.44
2023-03-15T07:11:40.963Z,101029.34
2023-03-15T07:12:45.391Z,101032.75
2023-03-15T07:13:47.289Z,101039.59
2023-03-15T07:14:49.707Z,101048.16
2023-03-15T07:15:52.470Z,101051.56
2023-03-15T07:16:54.104Z,101051.47
2023-03-15T07:17:57.828Z,101050.56
2023-03-15T07:19:00.048Z,101052.22
2023-03-15T07:20:01.492Z,101056.44
2023-03-15T07:21:03.812Z,101066.72
2023-03-15T07:22:08.436Z,101051.97
2023-03-15T07:23:10.038Z,101067.41
2023-03-15T07:24:11.490Z,101055.28
2023-03-15T07:25:15.350Z,101060.38
2023-03-15T07:26:16.801Z,101056.00
2023-03-15T07:27:19.526Z,101055.91
2023-03-15T07:28:23.226Z,101058.47
2023-03-15T07:29:25.067Z,101062.72
2023-03-15T07:30:28.046Z,101061.81
2023-03-15T07:31:29.503Z,101060.03
2023-03-15T07:32:31.980Z,101064.31
2023-03-15T07:33:35.953Z,101070.28
2023-03-15T07:34:37.477Z,101065.94
2023-03-15T07:35:39.500Z,101065.91
2023-03-15T07:36:41.140Z,101061.56
2023-03-15T07:37:44.692Z,101057.25
2023-03-15T07:38:46.341Z,101076.16
2023-03-15T07:39:47.843Z,101073.56
2023-03-15T07:40:51.669Z,101067.53
2023-03-15T07:41:53.421Z,101051.16
2023-03-15T07:43:04.481Z,101058.88
2023-03-15T07:44:06.020Z,101052.03
2023-03-15T07:45:10.431Z,101044.31
2023-03-15T07:46:11.980Z,101051.19
2023-03-15T07:47:14.775Z,101043.47
2023-03-15T07:48:16.384Z,101053.91
2023-03-15T07:49:18.294Z,101054.81
2023-03-15T07:50:19.762Z,101054.00
2023-03-15T07:51:21.118Z,101055.81
2023-03-15T07:52:23.074Z,101057.63
2023-03-15T07:53:24.514Z,101062.03
2023-03-15T07:54:27.897Z,101062.09
2023-03-15T07:55:31.220Z,101068.19
2023-03-15T07:56:35.074Z,101063.94
2023-03-15T07:57:36.526Z,101071.78
2023-03-15T07:58:38.347Z,101064.88
2023-03-15T07:59:39.989Z,101067.47
2023-03-15T08:00:41.556Z,101067.47
2023-03-15T08:01:43.010Z,101069.19
2023-03-15T08:02:44.502Z,101071.78
2023-03-15T08:03:45.915Z,101074.34
2023-03-15T08:04:48.805Z,101064.00
2023-03-15T08:05:50.747Z,101067.41
2023-03-15T08:06:52.206Z,101070.84
2023-03-15T08:07:53.913Z,101069.97
2023-03-15T08:08:55.302Z,101069.06
2023-03-15T08:09:58.498Z,101076.81
2023-03-15T08:11:00.046Z,101076.81
2023-03-15T08:12:01.834Z,101075.94
2023-03-15T08:13:03.595Z,101075.94
2023-03-15T08:14:05.747Z,101066.44
2023-03-15T08:15:07.685Z,101079.38
2023-03-15T08:16:09.442Z,101069.91
2023-03-15T08:17:13.145Z,101076.84
2023-03-15T08:18:14.692Z,101071.66
2023-03-15T08:19:16.466Z,101074.34
2023-03-15T08:20:18.381Z,101075.22
2023-03-15T08:21:19.940Z,101071.81
2023-03-15T08:22:21.520Z,101076.16
2023-03-15T08:23:25.289Z,101076.22
2023-03-15T08:24:27.201Z,101069.31
2023-03-15T08:25:32.004Z,101073.69
2023-03-15T08:26:33.773Z,101076.31
2023-03-15T08:27:35.264Z,101077.25
2023-03-15T08:28:36.693Z,101069.50
2023-03-15T08:29:38.495Z,101070.38
2023-03-15T08:30:40.783Z,101073.00
2023-03-15T08:31:42.375Z,101073.91
2023-03-15T08:32:45.079Z,101067.91
2023-03-15T08:33:46.590Z,101076.53
2023-03-15T08:34:53.145Z,101079.97
2023-03-15T08:35:57.020Z,101077.38
2023-03-15T08:36:58.973Z,101079.13
2023-03-15T08:38:02.557Z,101085.16
2023-03-15T08:39:05.518Z,101091.22
2023-03-15T08:40:11.273Z,101086.91
2023-03-15T08:41:13.230Z,101086.94
2023-03-15T08:42:14.685Z,101086.94
2023-03-15T08:43:16.146Z,101092.13
2023-03-15T08:44:20.826Z,101091.31
2023-03-15T08:45:24.374Z,101095.66
2023-03-15T08:46:26.221Z,101092.25
2023-03-15T08:47:30.722Z,101092.28
2023-03-15T08:48:34.313Z,101101.84
2023-03-15T08:49:35.859Z,101095.84
2023-03-15T08:50:38.797Z,101100.22
2023-03-15T08:51:42.878Z,101097.69
2023-03-15T08:52:44.457Z,101103.75
2023-03-15T08:53:46.042Z,101103.84
2023-03-15T08:54:50.000Z,101107.44
2023-03-15T08:55:51.550Z,101111.88
2023-03-15T08:56:52.947Z,101112.84
2023-03-15T08:57:54.553Z,101118.16
2023-03-15T08:58:55.992Z,101123.47
2023-03-15T08:59:57.608Z,101135.69
2023-03-15T09:01:01.852Z,101148.75
2023-03-15T09:02:03.783Z,101162.59
2023-03-15T09:03:05.325Z,101160.84
2023-03-15T09:04:06.960Z,101166.00
2023-03-15T09:05:14.425Z,101168.59
2023-03-15T09:06:16.012Z,101157.31
2023-03-15T09:07:20.659Z,101159.81
2023-03-15T09:08:22.099Z,101151.13
2023-03-15T09:09:25.132Z,101156.22
2023-03-15T09:10:26.997Z,101156.16
2023-03-15T09:11:29.725Z,101160.44
2023-03-15T09:12:31.112Z,101163.81
2023-03-15T09:13:32.867Z,101170.63
2023-03-15T09:14:36.787Z,101167.97
2023-03-15T09:15:38.467Z,101164.47
2023-03-15T09:16:39.956Z,101167.84
2023-03-15T09:17:41.935Z,101162.59
2023-03-15T09:18:48.201Z,101167.75
2023-03-15T09:19:49.737Z,101166.81
2023-03-15T09:20:51.170Z,101163.34
2023-03-15T09:21:52.882Z,101162.44
2023-03-15T09:22:58.451Z,101165.00
2023-03-15T09:24:04.041Z,101163.25
2023-03-15T09:25:05.710Z,101170.97
2023-03-15T09:26:07.489Z,101171.84
2023-03-15T09:27:11.723Z,101171.84
2023-03-15T09:28:13.340Z,101177.84
2023-03-15T09:29:15.889Z,101178.72
2023-03-15T09:30:17.977Z,101189.97
2023-03-15T09:31:19.793Z,101190.03
2023-03-15T09:32:21.557Z,101184.06
2023-03-15T09:33:22.951Z,101182.38
2023-03-15T09:34:25.351Z,101184.19
2023-03-15T09:35:31.663Z,101186.00
2023-03-15T09:36:35.442Z,101185.22
2023-03-15T09:37:36.883Z,101183.56
2023-03-15T09:38:38.544Z,101175.84
2023-03-15T09:39:40.067Z,101172.44
2023-03-15T09:40:44.950Z,101171.59
2023-03-15T09:41:49.109Z,101172.47
2023-03-15T09:42:54.275Z,101171.63
2023-03-15T09:44:09.234Z,101172.47
2023-03-15T09:45:29.565Z,101169.03
2023-03-15T09:46:32.675Z,101172.47
2023-03-15T09:47:44.552Z,101174.22
2023-03-15T09:48:46.057Z,101171.63
2023-03-15T09:49:53.486Z,101170.72
2023-03-15T09:51:00.890Z,101179.41
2023-03-15T09:52:14.178Z,101175.03
2023-03-15T09:53:20.190Z,101175.91
2023-03-15T09:54:23.690Z,101172.50
2023-03-15T09:55:31.658Z,101172.53
2023-03-15T09:56:36.561Z,101170.84
2023-03-15T09:57:43.629Z,101168.28
2023-03-15T09:58:51.452Z,101177.00
2023-03-15T09:59:54.507Z,101180.47
2023-03-15T10:01:17.095Z,101181.41
2023-03-15T10:02:23.634Z,101179.72
2023-03-15T10:03:32.098Z,101182.34
2023-03-15T10:04:39.988Z,101187.59
2023-03-15T10:05:48.983Z,101191.94
2023-03-15T10:06:54.213Z,101179.91
2023-03-15T10:07:55.917Z,101179.06
2023-03-15T10:09:01.844Z,101185.94
2023-03-15T10:10:05.105Z,101189.47
2023-03-15T10:11:15.070Z,101196.38
2023-03-15T10:12:23.596Z,101183.47
2023-03-15T10:13:49.906Z,101182.72
2023-03-15T10:14:54.269Z,101199.22
2023-03-15T10:16:08.104Z,101184.59
2023-03-15T10:17:14.389Z,101179.50
2023-03-15T10:18:42.828Z,101180.41
2023-03-15T10:19:52.126Z,101182.28
2023-03-15T10:20:59.753Z,101184.09
2023-03-15T10:22:13.490Z,101181.56
2023-03-15T10:23:21.003Z,101181.66
2023-03-15T10:24:35.797Z,101180.91
2023-03-15T10:25:39.731Z,101172.34
2023-03-15T10:27:50.881Z,101171.69
2023-03-15T10:28:53.393Z,101172.59
2023-03-15T10:29:55.916Z,101187.31
2023-03-15T10:31:01.345Z,101185.63
2023-03-15T10:32:04.578Z,101182.22
2023-03-15T10:33:24.686Z,101178.75
2023-03-15T10:34:26.868Z,101182.22
2023-03-15T10:35:29.358Z,101175.28
2023-03-15T10:36:31.059Z,101188.25
2023-03-15T10:37:36.590Z,101187.31
2023-03-15T10:38:38.566Z,101197.66
2023-03-15T10:39:39.917Z,101191.53
2023-03-15T10:41:02.778Z,101188.91
2023-03-15T10:42:04.459Z,101187.97
2023-03-15T10:43:14.525Z,101197.47
2023-03-15T10:44:18.441Z,101191.44
2023-03-15T10:45:23.973Z,101194.88
2023-03-15T10:46:25.449Z,101191.44
2023-03-15T10:47:30.705Z,101194.88
2023-03-15T10:48:33.844Z,101195.75
2023-03-15T10:49:36.747Z,101194.03
2023-03-15T10:50:38.945Z,101197.50
2023-03-15T10:51:45.088Z,101189.72
2023-03-15T10:52:46.634Z,101196.66
2023-03-15T10:53:53.023Z,101186.28
2023-03-15T10:54:58.810Z,101188.88
2023-03-15T10:56:07.594Z,101196.69
2023-03-15T10:57:14.435Z,101190.66
2023-03-15T10:58:18.775Z,101194.97
2023-03-15T10:59:22.846Z,101188.06
2023-03-15T11:00:32.280Z,101194.13
2023-03-15T11:01:38.223Z,101191.56
2023-03-15T11:02:48.713Z,101195.91
2023-03-15T11:04:09.979Z,101199.41
2023-03-15T11:05:12.409Z,101202.00
2023-03-15T11:06:21.685Z,101189.91
2023-03-15T11:07:23.304Z,101203.78
2023-03-15T11:08:35.520Z,101202.03
2023-03-15T11:09:44.736Z,101197.72
2023-03-15T11:10:49.879Z,101203.81
2023-03-15T11:11:52.411Z,101212.47
2023-03-15T11:13:14.207Z,101207.31
2023-03-15T11:14:15.624Z,101205.63
2023-03-15T11:15:18.518Z,101216.91
2023-03-15T11:16:23.998Z,101222.97
2023-03-15T11:17:28.300Z,101220.41
2023-03-15T11:18:37.945Z,101218.72
2023-03-15T11:19:45.103Z,101216.13
2023-03-15T11:20:46.566Z,101216.16
2023-03-15T11:21:52.172Z,101222.22
2023-03-15T11:22:53.749Z,101216.19
2023-03-15T11:23:56.033Z,101214.50
2023-03-15T11:24:59.084Z,101203.31
2023-03-15T11:26:01.523Z,101207.63
2023-03-15T11:27:09.675Z,101216.34
2023-03-15T11:28:14.240Z,101213.78
2023-03-15T11:29:21.499Z,101219.91
2023-03-15T11:30:27.600Z,101220.81
2023-03-15T11:31:30.082Z,101218.25
2023-03-15T11:32:33.937Z,101219.19
2023-03-15T11:33:41.496Z,101220.94
2023-03-15T11:35:09.250Z,101220.16
2023-03-15T11:36:14.178Z,101218.50
2023-03-15T11:37:35.833Z,101217.63
2023-03-15T11:38:39.202Z,101220.31
2023-03-15T11:39:45.784Z,101221.22
2023-03-15T11:40:52.264Z,101219.53
2023-03-15T11:41:56.827Z,101220.44
2023-03-15T11:43:01.276Z,101216.19
2023-03-15T11:44:06.473Z,101223.16
2023-03-15T11:45:30.872Z,101215.44
2023-03-15T11:46:57.711Z,101218.97
2023-03-15T11:48:22.527Z,101221.56
2023-03-15T11:49:33.144Z,101221.56
2023-03-15T11:50:34.570Z,101218.06
2023-03-15T11:51:36.492Z,101230.22
2023-03-15T11:52:40.717Z,101237.94
2023-03-15T11:53:46.442Z,101256.13
2023-03-15T11:54:47.934Z,101245.69
2023-03-15T11:55:50.571Z,101229.16
2023-03-15T11:56:56.566Z,101243.81
2023-03-15T11:58:21.285Z,101247.19
2023-03-15T11:59:28.664Z,101263.53
2023-03-15T12:00:35.700Z,101260.88
2023-03-15T12:01:38.183Z,101263.41
2023-03-15T12:02:48.664Z,101256.50
2023-03-15T12:03:52.354Z,101268.53
2023-03-15T12:04:54.637Z,101263.31
2023-03-15T12:06:05.337Z,101265.91
2023-03-15T12:07:31.806Z,101262.38
2023-03-15T12:08:36.520Z,101264.06
2023-03-15T12:09:39.256Z,101272.72
2023-03-15T12:10:45.101Z,101272.72
2023-03-15T12:11:46.533Z,101276.16
2023-03-15T12:12:56.858Z,101278.78
2023-03-15T12:13:58.320Z,101268.41
2023-03-15T12:15:35.127Z,101267.56
2023-03-15T12:16:42.351Z,101259.81
2023-03-15T12:17:50.075Z,101255.53
2023-03-15T12:18:52.653Z,101260.75
2023-03-15T12:20:02.097Z,101257.31
2023-03-15T12:21:14.273Z,101259.03
2023-03-15T12:22:16.670Z,101263.41
2023-03-15T12:23:18.181Z,101253.91
2023-03-15T12:24:24.823Z,101252.19
2023-03-15T12:25:33.922Z,101260.91
2023-03-15T12:26:36.826Z,101262.66
2023-03-15T12:27:49.301Z,101264.38
2023-03-15T12:29:03.958Z,101254.03
2023-03-15T12:30:20.024Z,101260.13
2023-03-15T12:31:24.272Z,101255.81
2023-03-15T12:32:27.656Z,101252.41
2023-03-15T12:33:34.185Z,101261.06
2023-03-15T12:34:48.503Z,101257.63
2023-03-15T12:35:52.705Z,101253.31
2023-03-15T12:36:57.059Z,101244.69
2023-03-15T12:38:03.463Z,101259.44
2023-03-15T12:39:14.296Z,101249.09